sensor_id;sensor_type;location;lat;lon;timestamp;P1;durP1;ratioP1;P2;durP2;ratioP2
51216;SDS011;37283;49.760;8.648;2023-08-06T01:03:16;4.45;;;2.30;;
51216;SDS011;37283;49.760;8.648;2023-08-06T01:05:43;3.80;;;2.60;;
51216;SDS011;37283;49.760;8.648;2023-08-06T01:13:45;3.10;;;1.90;;
51216;SDS011;37283;49.760;8.648;2023-08-06T01:18:42;4.68;;;1.77;;
51216;SDS011;37283;49.760;8.648;2023-08-06T01:21:12;6.70;;;2.20;;
51216;SDS011;37283;49.760;8.648;2023-08-06T01:23:39;4.38;;;2.20;;
51216;SDS011;37283;49.760;8.648;2023-08-06T01:29:15;2.67;;;1.90;;
51216;SDS011;37283;49.760;8.648;2023-08-06T01:31:46;2.72;;;1.80;;
51216;SDS011;37283;49.760;8.648;2023-08-06T01:34:23;4.93;;;2.30;;
51216;SDS011;37283;49.760;8.648;2023-08-06T01:36:50;3.25;;;1.95;;
51216;SDS011;37283;49.760;8.648;2023-08-06T01:39:18;3.67;;;2.00;;
51216;SDS011;37283;49.760;8.648;2023-08-06T01:41:47;6.03;;;1.98;;
51216;SDS011;37283;49.760;8.648;2023-08-06T01:44:15;3.53;;;1.98;;
51216;SDS011;37283;49.760;8.648;2023-08-06T01:46:42;3.28;;;1.80;;
51216;SDS011;37283;49.760;8.648;2023-08-06T01:49:09;5.65;;;1.95;;
51216;SDS011;37283;49.760;8.648;2023-08-06T01:51:35;3.75;;;1.80;;
51216;SDS011;37283;49.760;8.648;2023-08-06T01:54:02;3.13;;;1.95;;
51216;SDS011;37283;49.760;8.648;2023-08-06T01:56:28;4.00;;;1.77;;
51216;SDS011;37283;49.760;8.648;2023-08-06T01:58:55;4.00;;;1.80;;
51216;SDS011;37283;49.760;8.648;2023-08-06T02:01:21;3.50;;;2.10;;
51216;SDS011;37283;49.760;8.648;2023-08-06T02:03:49;3.85;;;2.00;;
51216;SDS011;37283;49.760;8.648;2023-08-06T02:06:17;4.65;;;2.00;;
51216;SDS011;37283;49.760;8.648;2023-08-06T02:08:44;3.22;;;1.90;;
51216;SDS011;37283;49.760;8.648;2023-08-06T02:11:10;2.45;;;1.60;;
51216;SDS011;37283;49.760;8.648;2023-08-06T02:13:37;4.35;;;1.90;;
51216;SDS011;37283;49.760;8.648;2023-08-06T02:16:03;3.95;;;1.98;;
51216;SDS011;37283;49.760;8.648;2023-08-06T02:18:35;3.53;;;2.13;;
51216;SDS011;37283;49.760;8.648;2023-08-06T02:21:01;4.50;;;2.10;;
51216;SDS011;37283;49.760;8.648;2023-08-06T02:23:28;3.33;;;1.70;;
51216;SDS011;37283;49.760;8.648;2023-08-06T02:26:01;4.72;;;1.90;;
51216;SDS011;37283;49.760;8.648;2023-08-06T02:28:28;3.30;;;1.80;;
51216;SDS011;37283;49.760;8.648;2023-08-06T02:30:55;4.97;;;1.75;;
51216;SDS011;37283;49.760;8.648;2023-08-06T02:33:22;5.22;;;2.05;;
51216;SDS011;37283;49.760;8.648;2023-08-06T02:35:48;6.35;;;2.20;;
51216;SDS011;37283;49.760;8.648;2023-08-06T02:38:15;2.85;;;1.80;;
51216;SDS011;37283;49.760;8.648;2023-08-06T02:40:42;3.80;;;2.17;;
51216;SDS011;37283;49.760;8.648;2023-08-06T02:43:10;3.83;;;1.93;;
51216;SDS011;37283;49.760;8.648;2023-08-06T02:45:37;3.22;;;1.67;;
51216;SDS011;37283;49.760;8.648;2023-08-06T02:48:04;4.47;;;2.05;;
51216;SDS011;37283;49.760;8.648;2023-08-06T02:50:37;4.45;;;1.80;;
51216;SDS011;37283;49.760;8.648;2023-08-06T02:53:06;4.10;;;2.10;;
51216;SDS011;37283;49.760;8.648;2023-08-06T02:55:37;6.00;;;2.38;;
51216;SDS011;37283;49.760;8.648;2023-08-06T02:58:10;6.70;;;1.88;;
51216;SDS011;37283;49.760;8.648;2023-08-06T03:00:42;4.55;;;1.85;;
51216;SDS011;37283;49.760;8.648;2023-08-06T03:03:11;4.22;;;1.67;;
51216;SDS011;37283;49.760;8.648;2023-08-06T03:05:51;4.03;;;2.30;;
51216;SDS011;37283;49.760;8.648;2023-08-06T03:08:31;3.83;;;1.98;;
51216;SDS011;37283;49.760;8.648;2023-08-06T03:10:58;4.28;;;2.38;;
51216;SDS011;37283;49.760;8.648;2023-08-06T03:13:26;6.07;;;1.95;;
51216;SDS011;37283;49.760;8.648;2023-08-06T03:15:55;4.78;;;2.00;;
51216;SDS011;37283;49.760;8.648;2023-08-06T03:18:23;5.43;;;1.80;;
51216;SDS011;37283;49.760;8.648;2023-08-06T03:20:50;6.00;;;2.05;;
51216;SDS011;37283;49.760;8.648;2023-08-06T03:23:17;3.30;;;1.83;;
51216;SDS011;37283;49.760;8.648;2023-08-06T03:25:44;4.13;;;1.88;;
51216;SDS011;37283;49.760;8.648;2023-08-06T03:28:12;6.35;;;2.22;;
51216;SDS011;37283;49.760;8.648;2023-08-06T03:30:38;4.90;;;2.08;;
51216;SDS011;37283;49.760;8.648;2023-08-06T03:35:34;3.20;;;1.90;;
51216;SDS011;37283;49.760;8.648;2023-08-06T03:38:02;4.07;;;2.17;;
51216;SDS011;37283;49.760;8.648;2023-08-06T03:40:28;3.45;;;2.00;;
51216;SDS011;37283;49.760;8.648;2023-08-06T03:42:56;4.47;;;1.80;;
51216;SDS011;37283;49.760;8.648;2023-08-06T03:45:23;5.22;;;2.20;;
51216;SDS011;37283;49.760;8.648;2023-08-06T03:47:50;5.55;;;1.98;;
51216;SDS011;37283;49.760;8.648;2023-08-06T03:50:18;6.28;;;1.95;;
51216;SDS011;37283;49.760;8.648;2023-08-06T03:52:45;3.00;;;2.10;;
51216;SDS011;37283;49.760;8.648;2023-08-06T03:55:12;2.85;;;2.00;;
51216;SDS011;37283;49.760;8.648;2023-08-06T03:57:39;3.13;;;2.00;;
51216;SDS011;37283;49.760;8.648;2023-08-06T04:00:06;3.92;;;2.30;;
51216;SDS011;37283;49.760;8.648;2023-08-06T04:02:40;5.05;;;2.30;;
51216;SDS011;37283;49.760;8.648;2023-08-06T04:05:07;4.90;;;2.30;;
51216;SDS011;37283;49.760;8.648;2023-08-06T04:07:34;3.40;;;2.22;;
51216;SDS011;37283;49.760;8.648;2023-08-06T04:10:02;4.57;;;2.10;;
51216;SDS011;37283;49.760;8.648;2023-08-06T04:12:29;3.25;;;2.05;;
51216;SDS011;37283;49.760;8.648;2023-08-06T04:15:00;5.95;;;2.50;;
51216;SDS011;37283;49.760;8.648;2023-08-06T04:17:27;5.75;;;2.40;;
51216;SDS011;37283;49.760;8.648;2023-08-06T07:20:20;2.03;;;1.40;;
51216;SDS011;37283;49.760;8.648;2023-08-06T07:22:46;4.43;;;1.30;;
51216;SDS011;37283;49.760;8.648;2023-08-06T07:25:13;3.78;;;1.35;;
51216;SDS011;37283;49.760;8.648;2023-08-06T07:27:40;1.80;;;1.05;;
51216;SDS011;37283;49.760;8.648;2023-08-06T07:30:06;3.22;;;1.05;;
51216;SDS011;37283;49.760;8.648;2023-08-06T07:32:33;3.13;;;1.20;;
51216;SDS011;37283;49.760;8.648;2023-08-06T07:35:00;3.85;;;1.30;;
51216;SDS011;37283;49.760;8.648;2023-08-06T07:37:28;2.65;;;1.27;;
51216;SDS011;37283;49.760;8.648;2023-08-06T07:39:55;2.17;;;1.00;;
51216;SDS011;37283;49.760;8.648;2023-08-06T07:42:22;5.50;;;1.38;;
51216;SDS011;37283;49.760;8.648;2023-08-06T07:44:53;3.25;;;1.00;;
51216;SDS011;37283;49.760;8.648;2023-08-06T07:47:20;2.92;;;1.05;;
51216;SDS011;37283;49.760;8.648;2023-08-06T07:49:47;3.67;;;1.20;;
51216;SDS011;37283;49.760;8.648;2023-08-06T07:52:14;3.20;;;1.25;;
51216;SDS011;37283;49.760;8.648;2023-08-06T07:54:40;2.78;;;1.00;;
51216;SDS011;37283;49.760;8.648;2023-08-06T07:57:07;1.63;;;1.00;;
51216;SDS011;37283;49.760;8.648;2023-08-06T07:59:34;2.35;;;1.05;;
51216;SDS011;37283;49.760;8.648;2023-08-06T08:02:00;2.28;;;0.90;;
51216;SDS011;37283;49.760;8.648;2023-08-06T08:04:27;2.50;;;0.93;;
51216;SDS011;37283;49.760;8.648;2023-08-06T08:06:54;2.40;;;1.00;;
51216;SDS011;37283;49.760;8.648;2023-08-06T08:09:20;2.53;;;0.90;;
51216;SDS011;37283;49.760;8.648;2023-08-06T08:11:47;1.55;;;0.80;;
51216;SDS011;37283;49.760;8.648;2023-08-06T08:14:13;1.65;;;1.08;;
51216;SDS011;37283;49.760;8.648;2023-08-06T08:16:40;0.77;;;0.60;;
51216;SDS011;37283;49.760;8.648;2023-08-06T08:19:06;1.80;;;0.80;;
51216;SDS011;37283;49.760;8.648;2023-08-06T08:21:33;2.03;;;0.80;;
51216;SDS011;37283;49.760;8.648;2023-08-06T08:24:00;1.63;;;0.90;;
51216;SDS011;37283;49.760;8.648;2023-08-06T08:26:27;1.52;;;0.80;;
51216;SDS011;37283;49.760;8.648;2023-08-06T08:28:54;1.70;;;0.80;;
51216;SDS011;37283;49.760;8.648;2023-08-06T08:31:20;1.20;;;0.70;;
51216;SDS011;37283;49.760;8.648;2023-08-06T08:33:47;1.83;;;0.75;;
51216;SDS011;37283;49.760;8.648;2023-08-06T08:36:13;1.55;;;0.73;;
51216;SDS011;37283;49.760;8.648;2023-08-06T08:38:40;1.88;;;0.75;;
51216;SDS011;37283;49.760;8.648;2023-08-06T08:41:09;1.65;;;0.80;;
51216;SDS011;37283;49.760;8.648;2023-08-06T08:43:36;1.83;;;0.90;;
51216;SDS011;37283;49.760;8.648;2023-08-06T08:46:03;2.22;;;1.10;;
51216;SDS011;37283;49.760;8.648;2023-08-06T08:48:30;1.13;;;0.75;;
51216;SDS011;37283;49.760;8.648;2023-08-06T08:50:57;1.90;;;0.80;;
51216;SDS011;37283;49.760;8.648;2023-08-06T08:53:23;0.80;;;0.70;;
51216;SDS011;37283;49.760;8.648;2023-08-06T08:55:51;0.95;;;0.60;;
51216;SDS011;37283;49.760;8.648;2023-08-06T08:58:19;1.02;;;0.68;;
51216;SDS011;37283;49.760;8.648;2023-08-06T09:00:45;1.50;;;0.55;;
51216;SDS011;37283;49.760;8.648;2023-08-06T09:03:13;1.35;;;0.75;;
51216;SDS011;37283;49.760;8.648;2023-08-06T09:05:44;1.17;;;0.57;;
51216;SDS011;37283;49.760;8.648;2023-08-06T09:08:12;2.30;;;0.73;;
51216;SDS011;37283;49.760;8.648;2023-08-06T09:10:43;0.68;;;0.50;;
51216;SDS011;37283;49.760;8.648;2023-08-06T09:13:10;1.75;;;0.70;;
51216;SDS011;37283;49.760;8.648;2023-08-06T09:15:38;2.55;;;0.82;;
51216;SDS011;37283;49.760;8.648;2023-08-06T09:18:11;1.35;;;0.65;;
51216;SDS011;37283;49.760;8.648;2023-08-06T09:20:38;1.58;;;0.60;;
51216;SDS011;37283;49.760;8.648;2023-08-06T09:23:08;1.17;;;0.70;;
51216;SDS011;37283;49.760;8.648;2023-08-06T09:25:37;1.67;;;0.80;;
51216;SDS011;37283;49.760;8.648;2023-08-06T09:28:05;3.08;;;0.93;;
51216;SDS011;37283;49.760;8.648;2023-08-06T09:30:33;2.45;;;0.80;;
51216;SDS011;37283;49.760;8.648;2023-08-06T09:33:00;1.10;;;0.80;;
51216;SDS011;37283;49.760;8.648;2023-08-06T09:35:31;0.93;;;0.70;;
51216;SDS011;37283;49.760;8.648;2023-08-06T09:38:05;1.60;;;0.60;;
51216;SDS011;37283;49.760;8.648;2023-08-06T09:40:36;1.13;;;0.60;;
51216;SDS011;37283;49.760;8.648;2023-08-06T09:43:03;1.65;;;0.65;;
51216;SDS011;37283;49.760;8.648;2023-08-06T09:45:33;0.82;;;0.60;;
51216;SDS011;37283;49.760;8.648;2023-08-06T09:48:07;0.77;;;0.70;;
51216;SDS011;37283;49.760;8.648;2023-08-06T09:50:35;0.73;;;0.70;;
51216;SDS011;37283;49.760;8.648;2023-08-06T09:53:06;1.63;;;0.80;;
51216;SDS011;37283;49.760;8.648;2023-08-06T09:55:36;1.13;;;0.50;;
51216;SDS011;37283;49.760;8.648;2023-08-06T09:58:02;0.50;;;0.50;;
51216;SDS011;37283;49.760;8.648;2023-08-06T10:00:29;1.67;;;0.50;;
51216;SDS011;37283;49.760;8.648;2023-08-06T10:03:01;1.10;;;0.60;;
51216;SDS011;37283;49.760;8.648;2023-08-06T10:05:28;0.47;;;0.47;;
51216;SDS011;37283;49.760;8.648;2023-08-06T10:07:57;0.95;;;0.50;;
51216;SDS011;37283;49.760;8.648;2023-08-06T10:10:26;0.40;;;0.40;;
51216;SDS011;37283;49.760;8.648;2023-08-06T10:12:54;0.50;;;0.40;;
51216;SDS011;37283;49.760;8.648;2023-08-06T10:15:24;0.65;;;0.40;;
51216;SDS011;37283;49.760;8.648;2023-08-06T10:17:53;0.77;;;0.30;;
51216;SDS011;37283;49.760;8.648;2023-08-06T10:20:22;0.95;;;0.38;;
51216;SDS011;37283;49.760;8.648;2023-08-06T10:23:01;0.30;;;0.30;;
51216;SDS011;37283;49.760;8.648;2023-08-06T10:25:33;0.65;;;0.30;;
51216;SDS011;37283;49.760;8.648;2023-08-06T10:28:00;1.77;;;0.40;;
51216;SDS011;37283;49.760;8.648;2023-08-06T10:30:34;0.32;;;0.32;;
51216;SDS011;37283;49.760;8.648;2023-08-06T10:33:07;1.25;;;0.20;;
51216;SDS011;37283;49.760;8.648;2023-08-06T10:35:35;0.47;;;0.30;;
51216;SDS011;37283;49.760;8.648;2023-08-06T10:38:05;0.30;;;0.30;;
51216;SDS011;37283;49.760;8.648;2023-08-06T10:40:35;0.25;;;0.25;;
51216;SDS011;37283;49.760;8.648;2023-08-06T10:43:03;1.02;;;0.30;;
51216;SDS011;37283;49.760;8.648;2023-08-06T10:45:36;0.20;;;0.20;;
51216;SDS011;37283;49.760;8.648;2023-08-06T10:48:03;0.45;;;0.30;;
51216;SDS011;37283;49.760;8.648;2023-08-06T10:50:30;0.45;;;0.28;;
51216;SDS011;37283;49.760;8.648;2023-08-06T10:52:57;0.40;;;0.30;;
51216;SDS011;37283;49.760;8.648;2023-08-06T10:55:28;1.67;;;0.63;;
51216;SDS011;37283;49.760;8.648;2023-08-06T10:57:55;2.40;;;0.40;;
51216;SDS011;37283;49.760;8.648;2023-08-06T11:00:22;0.88;;;0.52;;
51216;SDS011;37283;49.760;8.648;2023-08-06T11:02:52;0.77;;;0.63;;
51216;SDS011;37283;49.760;8.648;2023-08-06T11:05:20;0.35;;;0.35;;
51216;SDS011;37283;49.760;8.648;2023-08-06T11:07:46;1.60;;;0.32;;
51216;SDS011;37283;49.760;8.648;2023-08-06T11:10:15;0.22;;;0.22;;
51216;SDS011;37283;49.760;8.648;2023-08-06T11:12:41;0.47;;;0.30;;
51216;SDS011;37283;49.760;8.648;2023-08-06T11:15:08;0.60;;;0.30;;
51216;SDS011;37283;49.760;8.648;2023-08-06T11:17:35;2.28;;;0.43;;
51216;SDS011;37283;49.760;8.648;2023-08-06T11:20:03;0.43;;;0.20;;
51216;SDS011;37283;49.760;8.648;2023-08-06T11:22:30;0.65;;;0.30;;
51216;SDS011;37283;49.760;8.648;2023-08-06T11:24:57;0.20;;;0.20;;
51216;SDS011;37283;49.760;8.648;2023-08-06T11:27:25;0.20;;;0.20;;
51216;SDS011;37283;49.760;8.648;2023-08-06T11:29:52;1.00;;;0.30;;
51216;SDS011;37283;49.760;8.648;2023-08-06T11:32:19;3.00;;;0.30;;
51216;SDS011;37283;49.760;8.648;2023-08-06T11:34:46;0.57;;;0.20;;
51216;SDS011;37283;49.760;8.648;2023-08-06T11:37:12;0.82;;;0.30;;
51216;SDS011;37283;49.760;8.648;2023-08-06T11:39:39;0.30;;;0.30;;
51216;SDS011;37283;49.760;8.648;2023-08-06T11:42:12;0.73;;;0.40;;
51216;SDS011;37283;49.760;8.648;2023-08-06T11:44:38;0.68;;;0.40;;
51216;SDS011;37283;49.760;8.648;2023-08-06T11:47:15;2.60;;;0.30;;
51216;SDS011;37283;49.760;8.648;2023-08-06T11:49:46;0.65;;;0.40;;
51216;SDS011;37283;49.760;8.648;2023-08-06T11:52:17;1.15;;;0.40;;
51216;SDS011;37283;49.760;8.648;2023-08-06T11:55:05;0.75;;;0.40;;
51216;SDS011;37283;49.760;8.648;2023-08-06T11:57:39;0.60;;;0.50;;
51216;SDS011;37283;49.760;8.648;2023-08-06T12:00:13;0.40;;;0.40;;
51216;SDS011;37283;49.760;8.648;2023-08-06T12:02:42;0.80;;;0.55;;
51216;SDS011;37283;49.760;8.648;2023-08-06T12:05:10;0.85;;;0.57;;
51216;SDS011;37283;49.760;8.648;2023-08-06T12:07:47;2.00;;;0.50;;
51216;SDS011;37283;49.760;8.648;2023-08-06T12:10:15;0.88;;;0.57;;
51216;SDS011;37283;49.760;8.648;2023-08-06T12:12:42;0.52;;;0.52;;
51216;SDS011;37283;49.760;8.648;2023-08-06T12:15:09;0.80;;;0.70;;
51216;SDS011;37283;49.760;8.648;2023-08-06T12:17:36;0.73;;;0.60;;
51216;SDS011;37283;49.760;8.648;2023-08-06T12:20:03;0.50;;;0.50;;
51216;SDS011;37283;49.760;8.648;2023-08-06T12:22:30;1.00;;;0.60;;
51216;SDS011;37283;49.760;8.648;2023-08-06T12:25:02;0.75;;;0.55;;
51216;SDS011;37283;49.760;8.648;2023-08-06T12:27:29;0.60;;;0.60;;
51216;SDS011;37283;49.760;8.648;2023-08-06T12:29:56;0.40;;;0.40;;
51216;SDS011;37283;49.760;8.648;2023-08-06T12:32:23;0.65;;;0.65;;
51216;SDS011;37283;49.760;8.648;2023-08-06T12:34:49;0.95;;;0.73;;
51216;SDS011;37283;49.760;8.648;2023-08-06T12:39:45;1.10;;;0.60;;
51216;SDS011;37283;49.760;8.648;2023-08-06T12:42:12;0.98;;;0.60;;
51216;SDS011;37283;49.760;8.648;2023-08-06T12:44:38;0.90;;;0.80;;
51216;SDS011;37283;49.760;8.648;2023-08-06T12:47:06;1.63;;;0.82;;
51216;SDS011;37283;49.760;8.648;2023-08-06T12:49:33;1.37;;;0.60;;
51216;SDS011;37283;49.760;8.648;2023-08-06T12:52:00;3.60;;;0.80;;
51216;SDS011;37283;49.760;8.648;2023-08-06T12:54:27;1.30;;;0.77;;
51216;SDS011;37283;49.760;8.648;2023-08-06T12:56:54;1.20;;;0.68;;
51216;SDS011;37283;49.760;8.648;2023-08-06T12:59:21;0.80;;;0.60;;
51216;SDS011;37283;49.760;8.648;2023-08-06T13:01:48;1.92;;;0.52;;
51216;SDS011;37283;49.760;8.648;2023-08-06T13:04:16;1.50;;;0.70;;
51216;SDS011;37283;49.760;8.648;2023-08-06T13:06:48;1.20;;;0.60;;
51216;SDS011;37283;49.760;8.648;2023-08-06T13:09:15;1.52;;;0.60;;
51216;SDS011;37283;49.760;8.648;2023-08-06T13:11:42;1.35;;;0.60;;
51216;SDS011;37283;49.760;8.648;2023-08-06T13:14:12;0.75;;;0.50;;
51216;SDS011;37283;49.760;8.648;2023-08-06T13:16:41;1.05;;;0.68;;
51216;SDS011;37283;49.760;8.648;2023-08-06T13:19:10;1.17;;;0.65;;
51216;SDS011;37283;49.760;8.648;2023-08-06T13:24:16;1.15;;;0.65;;
51216;SDS011;37283;49.760;8.648;2023-08-06T13:26:43;2.78;;;0.60;;
51216;SDS011;37283;49.760;8.648;2023-08-06T13:29:09;1.45;;;0.60;;
51216;SDS011;37283;49.760;8.648;2023-08-06T13:31:36;1.10;;;0.65;;
51216;SDS011;37283;49.760;8.648;2023-08-06T13:34:03;1.10;;;0.50;;
51216;SDS011;37283;49.760;8.648;2023-08-06T13:36:30;1.20;;;0.73;;
51216;SDS011;37283;49.760;8.648;2023-08-06T13:38:57;2.20;;;0.60;;
51216;SDS011;37283;49.760;8.648;2023-08-06T13:41:23;1.02;;;0.50;;
51216;SDS011;37283;49.760;8.648;2023-08-06T13:43:50;0.90;;;0.60;;
51216;SDS011;37283;49.760;8.648;2023-08-06T13:46:17;0.50;;;0.50;;
51216;SDS011;37283;49.760;8.648;2023-08-06T13:48:46;2.60;;;0.70;;
51216;SDS011;37283;49.760;8.648;2023-08-06T13:51:17;0.85;;;0.50;;
51216;SDS011;37283;49.760;8.648;2023-08-06T13:53:44;1.00;;;0.60;;
51216;SDS011;37283;49.760;8.648;2023-08-06T13:56:10;0.95;;;0.60;;
51216;SDS011;37283;49.760;8.648;2023-08-06T13:58:37;1.35;;;0.77;;
51216;SDS011;37283;49.760;8.648;2023-08-06T14:01:04;1.58;;;0.50;;
51216;SDS011;37283;49.760;8.648;2023-08-06T14:03:31;1.17;;;0.50;;
51216;SDS011;37283;49.760;8.648;2023-08-06T14:05:58;1.50;;;0.52;;
51216;SDS011;37283;49.760;8.648;2023-08-06T14:08:24;1.20;;;0.40;;
51216;SDS011;37283;49.760;8.648;2023-08-06T14:10:51;0.73;;;0.60;;
51216;SDS011;37283;49.760;8.648;2023-08-06T14:13:18;0.60;;;0.40;;
51216;SDS011;37283;49.760;8.648;2023-08-06T14:15:45;1.00;;;0.70;;
51216;SDS011;37283;49.760;8.648;2023-08-06T14:18:15;2.95;;;0.60;;
51216;SDS011;37283;49.760;8.648;2023-08-06T14:20:42;1.17;;;0.60;;
51216;SDS011;37283;49.760;8.648;2023-08-06T14:23:09;2.50;;;0.70;;
51216;SDS011;37283;49.760;8.648;2023-08-06T14:25:36;2.17;;;0.68;;
51216;SDS011;37283;49.760;8.648;2023-08-06T14:28:03;1.48;;;0.60;;
51216;SDS011;37283;49.760;8.648;2023-08-06T14:30:30;1.08;;;0.68;;
51216;SDS011;37283;49.760;8.648;2023-08-06T14:32:56;1.05;;;0.60;;
51216;SDS011;37283;49.760;8.648;2023-08-06T14:35:29;0.60;;;0.40;;
51216;SDS011;37283;49.760;8.648;2023-08-06T14:37:55;1.80;;;0.60;;
51216;SDS011;37283;49.760;8.648;2023-08-06T14:40:22;1.60;;;0.70;;
51216;SDS011;37283;49.760;8.648;2023-08-06T14:42:48;2.65;;;0.70;;
51216;SDS011;37283;49.760;8.648;2023-08-06T14:45:15;1.00;;;0.50;;
51216;SDS011;37283;49.760;8.648;2023-08-06T14:47:42;0.60;;;0.40;;
51216;SDS011;37283;49.760;8.648;2023-08-06T14:50:08;1.50;;;0.70;;
51216;SDS011;37283;49.760;8.648;2023-08-06T14:52:35;0.98;;;0.50;;
51216;SDS011;37283;49.760;8.648;2023-08-06T14:55:02;1.20;;;0.50;;
51216;SDS011;37283;49.760;8.648;2023-08-06T14:57:30;1.30;;;0.70;;
51216;SDS011;37283;49.760;8.648;2023-08-06T14:59:57;0.75;;;0.60;;
51216;SDS011;37283;49.760;8.648;2023-08-06T15:02:25;1.75;;;0.40;;
51216;SDS011;37283;49.760;8.648;2023-08-06T15:04:52;0.30;;;0.30;;
51216;SDS011;37283;49.760;8.648;2023-08-06T15:07:18;0.65;;;0.40;;
51216;SDS011;37283;49.760;8.648;2023-08-06T15:09:45;2.05;;;0.40;;
51216;SDS011;37283;49.760;8.648;2023-08-06T15:12:31;0.30;;;0.30;;
51216;SDS011;37283;49.760;8.648;2023-08-06T15:14:58;1.92;;;0.30;;
51216;SDS011;37283;49.760;8.648;2023-08-06T15:17:26;0.50;;;0.40;;
51216;SDS011;37283;49.760;8.648;2023-08-06T15:19:55;1.23;;;0.60;;
51216;SDS011;37283;49.760;8.648;2023-08-06T15:22:24;0.47;;;0.35;;
51216;SDS011;37283;49.760;8.648;2023-08-06T15:24:51;1.27;;;0.50;;
51216;SDS011;37283;49.760;8.648;2023-08-06T15:27:18;0.98;;;0.60;;
51216;SDS011;37283;49.760;8.648;2023-08-06T15:29:44;1.35;;;0.57;;
51216;SDS011;37283;49.760;8.648;2023-08-06T15:32:11;1.20;;;0.55;;
51216;SDS011;37283;49.760;8.648;2023-08-06T15:34:39;1.98;;;0.50;;
51216;SDS011;37283;49.760;8.648;2023-08-06T15:37:06;1.45;;;0.77;;
51216;SDS011;37283;49.760;8.648;2023-08-06T15:39:34;1.02;;;0.30;;
51216;SDS011;37283;49.760;8.648;2023-08-06T15:42:01;0.63;;;0.40;;
51216;SDS011;37283;49.760;8.648;2023-08-06T15:44:28;0.57;;;0.50;;
51216;SDS011;37283;49.760;8.648;2023-08-06T15:46:54;0.90;;;0.40;;
51216;SDS011;37283;49.760;8.648;2023-08-06T15:49:21;0.70;;;0.32;;
51216;SDS011;37283;49.760;8.648;2023-08-06T15:51:48;0.82;;;0.60;;
51216;SDS011;37283;49.760;8.648;2023-08-06T15:54:16;0.70;;;0.50;;
51216;SDS011;37283;49.760;8.648;2023-08-06T15:56:42;3.05;;;2.03;;
51216;SDS011;37283;49.760;8.648;2023-08-06T16:01:52;0.60;;;0.60;;
51216;SDS011;37283;49.760;8.648;2023-08-06T16:04:19;1.00;;;0.50;;
51216;SDS011;37283;49.760;8.648;2023-08-06T16:06:46;0.45;;;0.40;;
51216;SDS011;37283;49.760;8.648;2023-08-06T16:09:13;0.52;;;0.40;;
51216;SDS011;37283;49.760;8.648;2023-08-06T16:11:39;0.60;;;0.60;;
51216;SDS011;37283;49.760;8.648;2023-08-06T16:14:06;0.63;;;0.55;;
51216;SDS011;37283;49.760;8.648;2023-08-06T16:16:33;0.57;;;0.50;;
51216;SDS011;37283;49.760;8.648;2023-08-06T16:19:03;0.57;;;0.35;;
51216;SDS011;37283;49.760;8.648;2023-08-06T16:21:30;1.77;;;0.40;;
51216;SDS011;37283;49.760;8.648;2023-08-06T16:23:57;0.52;;;0.50;;
51216;SDS011;37283;49.760;8.648;2023-08-06T16:26:23;1.05;;;0.50;;
51216;SDS011;37283;49.760;8.648;2023-08-06T16:28:51;2.90;;;0.50;;
51216;SDS011;37283;49.760;8.648;2023-08-06T16:31:18;2.67;;;0.60;;
51216;SDS011;37283;49.760;8.648;2023-08-06T16:33:45;1.20;;;0.50;;
51216;SDS011;37283;49.760;8.648;2023-08-06T16:36:12;0.65;;;0.40;;
51216;SDS011;37283;49.760;8.648;2023-08-06T16:38:38;0.50;;;0.50;;
51216;SDS011;37283;49.760;8.648;2023-08-06T16:41:05;1.33;;;0.60;;
51216;SDS011;37283;49.760;8.648;2023-08-06T16:43:31;2.22;;;1.00;;
51216;SDS011;37283;49.760;8.648;2023-08-06T16:45:58;1.45;;;0.75;;
51216;SDS011;37283;49.760;8.648;2023-08-06T16:48:25;0.85;;;0.70;;
51216;SDS011;37283;49.760;8.648;2023-08-06T16:50:58;1.05;;;0.60;;
51216;SDS011;37283;49.760;8.648;2023-08-06T16:53:26;1.85;;;0.60;;
51216;SDS011;37283;49.760;8.648;2023-08-06T16:55:54;0.50;;;0.40;;
51216;SDS011;37283;49.760;8.648;2023-08-06T16:58:21;0.60;;;0.40;;
51216;SDS011;37283;49.760;8.648;2023-08-06T17:00:47;0.93;;;0.57;;
51216;SDS011;37283;49.760;8.648;2023-08-06T17:03:15;1.30;;;0.55;;
51216;SDS011;37283;49.760;8.648;2023-08-06T17:05:43;1.42;;;0.68;;
51216;SDS011;37283;49.760;8.648;2023-08-06T17:08:09;1.25;;;0.60;;
51216;SDS011;37283;49.760;8.648;2023-08-06T17:10:36;4.90;;;0.85;;
51216;SDS011;37283;49.760;8.648;2023-08-06T17:13:05;1.70;;;0.70;;
51216;SDS011;37283;49.760;8.648;2023-08-06T17:15:46;0.88;;;0.70;;
51216;SDS011;37283;49.760;8.648;2023-08-06T17:18:13;2.47;;;0.70;;
51216;SDS011;37283;49.760;8.648;2023-08-06T17:20:43;1.85;;;0.70;;
51216;SDS011;37283;49.760;8.648;2023-08-06T17:23:10;1.15;;;0.60;;
51216;SDS011;37283;49.760;8.648;2023-08-06T17:25:36;4.25;;;0.70;;
51216;SDS011;37283;49.760;8.648;2023-08-06T17:28:07;1.70;;;0.75;;
51216;SDS011;37283;49.760;8.648;2023-08-06T17:30:33;2.58;;;0.80;;
51216;SDS011;37283;49.760;8.648;2023-08-06T17:33:00;1.40;;;0.68;;
51216;SDS011;37283;49.760;8.648;2023-08-06T17:35:27;1.08;;;0.93;;
51216;SDS011;37283;49.760;8.648;2023-08-06T17:37:58;0.82;;;0.80;;
51216;SDS011;37283;49.760;8.648;2023-08-06T17:40:26;2.33;;;0.80;;
51216;SDS011;37283;49.760;8.648;2023-08-06T17:42:53;0.77;;;0.50;;
51216;SDS011;37283;49.760;8.648;2023-08-06T17:45:20;2.15;;;0.70;;
51216;SDS011;37283;49.760;8.648;2023-08-06T17:47:47;0.90;;;0.55;;
51216;SDS011;37283;49.760;8.648;2023-08-06T17:50:14;1.33;;;0.50;;
51216;SDS011;37283;49.760;8.648;2023-08-06T17:52:41;2.08;;;0.70;;
51216;SDS011;37283;49.760;8.648;2023-08-06T17:55:07;1.40;;;0.55;;
51216;SDS011;37283;49.760;8.648;2023-08-06T17:57:34;1.50;;;0.63;;
51216;SDS011;37283;49.760;8.648;2023-08-06T18:00:01;1.42;;;0.70;;
51216;SDS011;37283;49.760;8.648;2023-08-06T18:02:36;0.85;;;0.50;;
51216;SDS011;37283;49.760;8.648;2023-08-06T18:05:03;0.90;;;0.50;;
51216;SDS011;37283;49.760;8.648;2023-08-06T18:07:29;1.52;;;0.70;;
51216;SDS011;37283;49.760;8.648;2023-08-06T18:09:56;0.98;;;0.60;;
51216;SDS011;37283;49.760;8.648;2023-08-06T18:12:23;1.08;;;0.70;;
51216;SDS011;37283;49.760;8.648;2023-08-06T18:14:49;1.42;;;0.77;;
51216;SDS011;37283;49.760;8.648;2023-08-06T18:17:16;1.00;;;0.57;;
51216;SDS011;37283;49.760;8.648;2023-08-06T18:19:43;0.63;;;0.57;;
51216;SDS011;37283;49.760;8.648;2023-08-06T18:22:09;2.67;;;0.50;;
51216;SDS011;37283;49.760;8.648;2023-08-06T18:24:36;1.13;;;0.57;;
51216;SDS011;37283;49.760;8.648;2023-08-06T18:27:03;0.75;;;0.57;;
51216;SDS011;37283;49.760;8.648;2023-08-06T18:29:29;1.92;;;0.55;;
51216;SDS011;37283;49.760;8.648;2023-08-06T18:31:56;1.42;;;0.60;;
51216;SDS011;37283;49.760;8.648;2023-08-06T18:34:22;1.02;;;0.68;;
51216;SDS011;37283;49.760;8.648;2023-08-06T18:36:49;7.05;;;0.60;;
51216;SDS011;37283;49.760;8.648;2023-08-06T18:39:15;1.90;;;0.40;;
51216;SDS011;37283;49.760;8.648;2023-08-06T18:41:42;2.30;;;0.40;;
51216;SDS011;37283;49.760;8.648;2023-08-06T18:44:09;1.23;;;0.60;;
51216;SDS011;37283;49.760;8.648;2023-08-06T18:46:36;0.77;;;0.40;;
51216;SDS011;37283;49.760;8.648;2023-08-06T18:49:03;1.35;;;0.50;;
51216;SDS011;37283;49.760;8.648;2023-08-06T18:51:30;2.65;;;0.80;;
51216;SDS011;37283;49.760;8.648;2023-08-06T18:53:57;0.88;;;0.50;;
51216;SDS011;37283;49.760;8.648;2023-08-06T18:56:24;0.90;;;0.65;;
51216;SDS011;37283;49.760;8.648;2023-08-06T18:58:50;3.25;;;0.52;;
51216;SDS011;37283;49.760;8.648;2023-08-06T19:01:17;1.48;;;0.95;;
51216;SDS011;37283;49.760;8.648;2023-08-06T19:03:43;4.82;;;3.80;;
51216;SDS011;37283;49.760;8.648;2023-08-06T19:06:10;2.22;;;0.70;;
51216;SDS011;37283;49.760;8.648;2023-08-06T19:08:37;1.15;;;0.73;;
51216;SDS011;37283;49.760;8.648;2023-08-06T19:11:03;0.47;;;0.45;;
51216;SDS011;37283;49.760;8.648;2023-08-06T19:13:30;0.85;;;0.60;;
51216;SDS011;37283;49.760;8.648;2023-08-06T19:15:56;1.55;;;0.80;;